Time;durP1;ratioP1;P1;durP2;ratioP2;P2;SDS_P1;SDS_P2;PMS_P1;PMS_P2;Temp;Humidity;BMP_temperature;BMP_pressure;BME280_temperature;BME280_humidity;BME280_pressure;Samples;Min_cycle;Max_cycle;Signal;HPM_P1;HPM_P2
2021/09/01 00:06:55;;;;;;;9.1;4.2;;;;;;;13.74;100;98344.32;;;;
2021/09/01 00:16:56;;;;;;;7.2;4.5;;;;;;;13.65;100;98359.84;;;;
2021/09/01 00:26:54;;;;;;;8.9;5.2;;;;;;;13.68;100;98359.17;;;;
2021/09/01 00:36:54;;;;;;;8.2;5.1;;;;;;;13.49;100;98365.09;;;;
2021/09/01 00:46:53;;;;;;;10.3;6.3;;;;;;;13.51;100;98378.28;;;;
2021/09/01 00:56:55;;;;;;;6.8;4.6;;;;;;;13.48;100;98379.74;;;;
2021/09/01 01:06:53;;;;;;;5.6;2.9;;;;;;;13.5;100;98390.25;;;;
2021/09/01 01:16:56;;;;;;;3.3;1.8;;;;;;;13.38;100;98398.3;;;;
2021/09/01 01:26:52;;;;;;;3.7;2;;;;;;;13.43;100;98403.53;;;;
2021/09/01 01:36:52;;;;;;;5.9;2.6;;;;;;;13.48;100;98400.61;;;;
2021/09/01 01:46:52;;;;;;;13;3.8;;;;;;;13.5;100;98403.8;;;;
2021/09/01 01:56:52;;;;;;;9.9;3.4;;;;;;;13.53;100;98403.92;;;;
2021/09/01 02:06:50;;;;;;;7.7;3.2;;;;;;;13.52;100;98412.36;;;;
2021/09/01 02:16:49;;;;;;;3.5;1.3;;;;;;;13.42;100;98410.85;;;;
2021/09/01 02:26:49;;;;;;;3.6;1.3;;;;;;;13.28;100;98413.02;;;;
2021/09/01 02:36:48;;;;;;;3.4;1.5;;;;;;;13.24;100;98417.5;;;;
2021/09/01 02:46:48;;;;;;;9.3;3.4;;;;;;;13.22;100;98429.78;;;;
2021/09/01 02:56:47;;;;;;;2.8;1.4;;;;;;;13.2;100;98434.72;;;;
2021/09/01 03:06:47;;;;;;;3.7;2.5;;;;;;;13.09;100;98437;;;;
2021/09/01 03:16:46;;;;;;;5.5;2.8;;;;;;;13.06;100;98441.13;;;;
2021/09/01 03:26:46;;;;;;;4.9;2.6;;;;;;;13.06;100;98453.86;;;;
2021/09/01 03:36:45;;;;;;;7.3;3.1;;;;;;;12.98;100;98463.61;;;;
2021/09/01 03:46:45;;;;;;;5.4;3.2;;;;;;;12.99;100;98469.81;;;;
2021/09/01 03:56:44;;;;;;;5.8;3.3;;;;;;;12.92;100;98481.15;;;;
2021/09/01 04:06:44;;;;;;;6.3;3.3;;;;;;;12.93;100;98490.06;;;;
2021/09/01 04:16:43;;;;;;;5.9;2.8;;;;;;;12.86;100;98493.27;;;;
2021/09/01 04:26:43;;;;;;;8.7;2.9;;;;;;;12.88;100;98509.95;;;;
2021/09/01 04:36:42;;;;;;;4.6;2.6;;;;;;;12.83;100;98518.27;;;;
2021/09/01 04:46:42;;;;;;;5;2.8;;;;;;;12.88;100;98528.09;;;;
2021/09/01 04:56:41;;;;;;;5;2.4;;;;;;;12.91;100;98549.88;;;;
2021/09/01 05:06:41;;;;;;;4.9;2.6;;;;;;;12.98;100;98555.59;;;;
2021/09/01 05:16:41;;;;;;;6.1;3.3;;;;;;;13.07;100;98563.69;;;;
2021/09/01 05:26:40;;;;;;;6.2;2.8;;;;;;;13.11;100;98567.38;;;;
2021/09/01 05:36:40;;;;;;;5.4;2.8;;;;;;;13.15;100;98570.22;;;;
2021/09/01 05:46:39;;;;;;;8.3;3.8;;;;;;;13.34;100;98581.44;;;;
2021/09/01 05:56:39;;;;;;;7.1;3.6;;;;;;;13.26;100;98595.81;;;;
2021/09/01 06:06:38;;;;;;;4.9;3.2;;;;;;;13.16;100;98596.14;;;;
2021/09/01 06:16:38;;;;;;;4.7;2.8;;;;;;;13.12;100;98609.52;;;;
2021/09/01 06:26:37;;;;;;;7.3;3.8;;;;;;;13.13;100;98627.36;;;;
2021/09/01 06:36:37;;;;;;;6.2;3.1;;;;;;;13.17;100;98643.75;;;;
2021/09/01 06:46:37;;;;;;;10.9;3.9;;;;;;;13.27;100;98643.39;;;;
2021/09/01 06:56:36;;;;;;;7.8;4.4;;;;;;;13.3;100;98651.66;;;;
2021/09/01 07:06:36;;;;;;;8.5;5;;;;;;;13.35;100;98667.74;;;;
2021/09/01 07:16:35;;;;;;;9.5;4;;;;;;;13.43;100;98682.38;;;;
2021/09/01 07:26:35;;;;;;;7.2;4.4;;;;;;;13.42;100;98686.19;;;;
2021/09/01 07:36:34;;;;;;;6.6;4.3;;;;;;;13.46;100;98698.77;;;;
2021/09/01 07:46:34;;;;;;;6.3;4.6;;;;;;;13.45;100;98712.62;;;;
2021/09/01 07:56:34;;;;;;;7.7;5.1;;;;;;;13.48;100;98725.5;;;;
2021/09/01 08:06:33;;;;;;;8.7;5.7;;;;;;;13.53;100;98733.47;;;;
2021/09/01 08:16:33;;;;;;;6.7;4;;;;;;;13.63;100;98746.66;;;;
2021/09/01 08:26:33;;;;;;;4.6;2.7;;;;;;;13.7;100;98757.79;;;;
2021/09/01 08:36:32;;;;;;;2.9;1.8;;;;;;;13.79;100;98774.8;;;;
2021/09/01 08:46:32;;;;;;;4.9;3.3;;;;;;;13.97;100;98786.38;;;;
2021/09/01 08:56:32;;;;;;;4.4;2.2;;;;;;;13.9;100;98808.56;;;;
2021/09/01 09:06:31;;;;;;;5.1;2.4;;;;;;;13.85;100;98819.55;;;;
2021/09/01 09:16:31;;;;;;;4.1;2;;;;;;;13.78;100;98830.09;;;;
2021/09/01 09:26:31;;;;;;;5.2;3.3;;;;;;;13.77;100;98831.23;;;;
2021/09/01 09:36:30;;;;;;;6;3.2;;;;;;;14.01;100;98841.52;;;;
2021/09/01 09:46:30;;;;;;;5.3;3.5;;;;;;;14.28;100;98840.3;;;;
2021/09/01 09:56:30;;;;;;;6.2;3.4;;;;;;;14.64;100;98853.42;;;;
2021/09/01 10:06:29;;;;;;;9.4;4.9;;;;;;;14.81;100;98856.03;;;;
2021/09/01 10:16:29;;;;;;;7.5;5.1;;;;;;;15.35;100;98878.65;;;;
2021/09/01 10:26:29;;;;;;;8.3;5.7;;;;;;;15.62;100;98886.28;;;;
2021/09/01 10:56:28;;;;;;;11.5;8.6;;;;;;;16.31;100;98910.89;;;;
2021/09/01 11:06:35;;;;;;;9.7;7.6;;;;;;;16.35;100;98938.98;;;;
2021/09/01 11:16:28;;;;;;;11.9;8.6;;;;;;;16.47;100;98938.23;;;;
2021/09/01 11:26:28;;;;;;;10.3;6.9;;;;;;;17.16;100;98945.55;;;;
2021/09/01 11:36:28;;;;;;;10.4;7.5;;;;;;;17.29;100;98955.3;;;;
2021/09/01 11:46:28;;;;;;;7.4;4.9;;;;;;;17.33;100;98953.48;;;;
2021/09/01 11:56:28;;;;;;;12.6;7.6;;;;;;;17.78;100;98948.64;;;;
2021/09/01 12:06:28;;;;;;;11.6;7.2;;;;;;;17.29;100;98958.02;;;;
2021/09/01 12:16:31;;;;;;;8.9;6.5;;;;;;;16.29;100;98969.45;;;;
2021/09/01 12:26:29;;;;;;;9.3;6.8;;;;;;;16.47;100;98976.32;;;;
2021/09/01 12:36:32;;;;;;;9.3;7.2;;;;;;;17.27;100;98976.65;;;;
2021/09/01 12:46:29;;;;;;;11.1;7.9;;;;;;;17.31;100;98985.73;;;;
2021/09/01 12:56:29;;;;;;;11.3;7.9;;;;;;;18.05;100;98972.41;;;;
2021/09/01 13:06:29;;;;;;;10.6;7.7;;;;;;;18.2;100;98978.25;;;;
2021/09/01 13:16:29;;;;;;;13.1;7.4;;;;;;;18.65;100;98980.66;;;;
2021/09/01 13:26:29;;;;;;;11;7.7;;;;;;;17.68;100;98973.66;;;;
2021/09/01 13:36:31;;;;;;;9.3;7;;;;;;;17.8;100;98984.55;;;;
2021/09/01 13:46:33;;;;;;;12.6;4.9;;;;;;;18.71;100;98990.2;;;;
2021/09/01 13:56:30;;;;;;;8.6;5.5;;;;;;;19.19;100;98989.84;;;;
2021/09/01 14:06:30;;;;;;;10.4;5.6;;;;;;;19.15;100;98988.17;;;;
2021/09/01 14:16:30;;;;;;;8.8;5.1;;;;;;;18.84;100;98988.97;;;;
2021/09/01 14:26:30;;;;;;;16.6;6.4;;;;;;;18.16;100;99004.64;;;;
2021/09/01 14:36:30;;;;;;;9;5.8;;;;;;;17.38;100;98996.85;;;;
2021/09/01 14:46:30;;;;;;;9.9;5.8;;;;;;;16.76;100;99006.14;;;;
2021/09/01 14:56:30;;;;;;;7.9;5.7;;;;;;;16.32;100;99012.3;;;;
2021/09/01 15:06:30;;;;;;;11;5.8;;;;;;;16.11;100;99013.14;;;;
2021/09/01 15:16:30;;;;;;;8.9;4.7;;;;;;;15.96;100;99018.4;;;;
2021/09/01 15:26:30;;;;;;;10.3;5.9;;;;;;;15.92;100;99020.19;;;;
2021/09/01 15:36:30;;;;;;;9.2;5.7;;;;;;;15.92;100;99012.83;;;;
2021/09/01 15:46:29;;;;;;;11.8;7.5;;;;;;;15.93;100;99011.68;;;;
2021/09/01 15:56:29;;;;;;;12.5;6.3;;;;;;;16.27;100;99007.89;;;;
2021/09/01 16:06:29;;;;;;;13;7.5;;;;;;;16.56;100;99002.33;;;;
2021/09/01 16:16:29;;;;;;;9.7;6.1;;;;;;;18.93;100;99001.3;;;;
2021/09/01 16:26:29;;;;;;;7.9;5.5;;;;;;;19.95;100;99013.06;;;;
2021/09/01 16:36:30;;;;;;;9.9;6.6;;;;;;;18.5;100;99009.52;;;;
2021/09/01 16:46:30;;;;;;;12.9;6.1;;;;;;;17.49;100;99011.61;;;;
2021/09/01 16:56:30;;;;;;;10.8;7.8;;;;;;;16.95;100;99017.27;;;;
2021/09/01 17:06:30;;;;;;;10.2;6.5;;;;;;;16.23;100;99027.92;;;;
2021/09/01 17:16:30;;;;;;;10.7;5.6;;;;;;;15.64;100;99027.25;;;;
2021/09/01 17:26:30;;;;;;;12.6;8.5;;;;;;;15.05;100;99043.51;;;;
2021/09/01 17:36:30;;;;;;;19;9.1;;;;;;;14.61;100;99061.05;;;;
2021/09/01 17:46:29;;;;;;;10.8;7.9;;;;;;;14.07;100;99057.05;;;;
2021/09/01 17:56:29;;;;;;;12.7;8.5;;;;;;;13.78;100;99070.42;;;;
2021/09/01 18:06:30;;;;;;;13.6;9.7;;;;;;;13.57;100;99076.41;;;;
2021/09/01 18:16:28;;;;;;;16.4;12.1;;;;;;;13.57;100;99091.89;;;;
2021/09/01 18:26:28;;;;;;;16.8;12.7;;;;;;;13.62;100;99094.44;;;;
2021/09/01 18:36:28;;;;;;;10.9;8.9;;;;;;;13.64;100;99100.33;;;;
2021/09/01 18:46:27;;;;;;;13.1;9.8;;;;;;;13.81;100;99113.14;;;;
2021/09/01 18:56:27;;;;;;;15.3;10.7;;;;;;;13.77;100;99112.97;;;;
2021/09/01 19:06:26;;;;;;;18;12.7;;;;;;;13.75;100;99115.17;;;;
2021/09/01 19:16:26;;;;;;;13.2;10.1;;;;;;;13.83;100;99119.83;;;;
2021/09/01 19:26:26;;;;;;;16.4;12.3;;;;;;;13.85;100;99114.11;;;;
2021/09/01 19:36:25;;;;;;;17.7;12.2;;;;;;;13.85;100;99125.72;;;;
2021/09/01 19:46:25;;;;;;;12.8;10.3;;;;;;;13.93;100;99127.66;;;;
2021/09/01 19:56:25;;;;;;;17.4;11.9;;;;;;;13.97;100;99134.05;;;;
2021/09/01 20:06:24;;;;;;;13.5;11.7;;;;;;;14;100;99143.45;;;;
2021/09/01 20:16:24;;;;;;;16.8;11.8;;;;;;;14.06;100;99142.98;;;;
2021/09/01 20:26:24;;;;;;;15.4;9.4;;;;;;;14.08;100;99150.8;;;;
2021/09/01 20:36:23;;;;;;;16.1;11.6;;;;;;;14.06;100;99153.02;;;;
2021/09/01 20:46:23;;;;;;;15.9;10.9;;;;;;;14.09;100;99166.73;;;;
2021/09/01 20:56:23;;;;;;;16.8;11.1;;;;;;;14.06;100;99180.92;;;;
2021/09/01 21:06:22;;;;;;;18.8;13.5;;;;;;;14.08;100;99186.84;;;;
2021/09/01 21:16:22;;;;;;;13.4;10.6;;;;;;;14.1;100;99181.89;;;;
2021/09/01 21:26:22;;;;;;;14.6;11.5;;;;;;;14.1;100;99192.73;;;;
2021/09/01 21:36:21;;;;;;;14.8;12.2;;;;;;;14.05;100;99205.66;;;;
2021/09/01 21:46:21;;;;;;;19;13;;;;;;;13.99;100;99199.56;;;;
2021/09/01 21:56:21;;;;;;;12.7;11.4;;;;;;;13.98;100;99199.89;;;;
2021/09/01 22:06:20;;;;;;;13.8;11.1;;;;;;;13.93;100;99200.02;;;;
2021/09/01 22:16:20;;;;;;;15.8;12.1;;;;;;;13.89;100;99207.98;;;;
2021/09/01 22:26:19;;;;;;;14.9;10.1;;;;;;;13.9;100;99200.66;;;;
2021/09/01 22:36:22;;;;;;;15.9;11.7;;;;;;;13.9;100;99208.78;;;;
2021/09/01 22:46:19;;;;;;;17.8;13.8;;;;;;;13.86;100;99196.97;;;;
2021/09/01 22:56:18;;;;;;;14.6;13.1;;;;;;;13.8;100;99193.61;;;;
2021/09/01 23:06:18;;;;;;;16;12.4;;;;;;;13.76;100;99186.42;;;;
2021/09/01 23:16:18;;;;;;;15.9;12.6;;;;;;;13.65;100;99183.19;;;;
2021/09/01 23:26:18;;;;;;;19.1;11.5;;;;;;;13.57;100;99178.55;;;;
2021/09/01 23:36:22;;;;;;;23.2;14.3;;;;;;;13.43;100;99170.5;;;;
2021/09/01 23:46:18;;;;;;;21.1;14.5;;;;;;;13.45;100;99156.66;;;;
2021/09/01 23:56:22;;;;;;;14.5;13;;;;;;;13.52;100;99154.3;;;;
